sensor_id;sensor_type;location;lat;lon;timestamp;P1;durP1;ratioP1;P2;durP2;ratioP2
44925;SDS011;30662;51.210;7.656;2022-12-11T00:00:20;88.35;;;42.85;;
44925;SDS011;30662;51.210;7.656;2022-12-11T00:02:46;87.10;;;41.25;;
44925;SDS011;30662;51.210;7.656;2022-12-11T00:05:12;87.38;;;41.75;;
44925;SDS011;30662;51.210;7.656;2022-12-11T00:07:38;82.95;;;40.58;;
44925;SDS011;30662;51.210;7.656;2022-12-11T00:10:04;101.05;;;43.45;;
44925;SDS011;30662;51.210;7.656;2022-12-11T00:12:30;86.47;;;41.28;;
44925;SDS011;30662;51.210;7.656;2022-12-11T00:14:56;94.75;;;43.72;;
44925;SDS011;30662;51.210;7.656;2022-12-11T00:17:22;82.45;;;42.85;;
44925;SDS011;30662;51.210;7.656;2022-12-11T00:19:48;101.88;;;42.17;;
44925;SDS011;30662;51.210;7.656;2022-12-11T00:22:15;81.78;;;39.70;;
44925;SDS011;30662;51.210;7.656;2022-12-11T00:24:41;85.28;;;40.45;;
44925;SDS011;30662;51.210;7.656;2022-12-11T00:27:07;100.18;;;42.03;;
44925;SDS011;30662;51.210;7.656;2022-12-11T00:29:33;91.05;;;41.15;;
44925;SDS011;30662;51.210;7.656;2022-12-11T00:31:59;79.05;;;39.38;;
44925;SDS011;30662;51.210;7.656;2022-12-11T00:34:25;87.93;;;40.58;;
44925;SDS011;30662;51.210;7.656;2022-12-11T00:36:51;85.82;;;39.72;;
44925;SDS011;30662;51.210;7.656;2022-12-11T00:39:17;111.13;;;41.22;;
44925;SDS011;30662;51.210;7.656;2022-12-11T00:41:46;92.43;;;36.97;;
44925;SDS011;30662;51.210;7.656;2022-12-11T00:44:11;92.97;;;36.38;;
44925;SDS011;30662;51.210;7.656;2022-12-11T00:46:37;77.10;;;34.70;;
44925;SDS011;30662;51.210;7.656;2022-12-11T00:49:03;74.85;;;33.50;;
44925;SDS011;30662;51.210;7.656;2022-12-11T00:51:29;75.25;;;34.35;;
44925;SDS011;30662;51.210;7.656;2022-12-11T00:53:55;112.63;;;34.33;;
44925;SDS011;30662;51.210;7.656;2022-12-11T00:56:21;73.25;;;35.63;;
44925;SDS011;30662;51.210;7.656;2022-12-11T00:58:48;71.78;;;33.40;;
44925;SDS011;30662;51.210;7.656;2022-12-11T01:01:16;70.03;;;35.67;;
44925;SDS011;30662;51.210;7.656;2022-12-11T01:03:44;90.80;;;38.40;;
44925;SDS011;30662;51.210;7.656;2022-12-11T01:06:14;118.45;;;39.05;;
44925;SDS011;30662;51.210;7.656;2022-12-11T01:08:43;72.78;;;34.83;;
44925;SDS011;30662;51.210;7.656;2022-12-11T01:11:10;95.78;;;37.20;;
44925;SDS011;30662;51.210;7.656;2022-12-11T01:13:38;76.15;;;37.05;;
44925;SDS011;30662;51.210;7.656;2022-12-11T01:16:07;71.82;;;36.20;;
44925;SDS011;30662;51.210;7.656;2022-12-11T01:18:35;71.60;;;33.75;;
44925;SDS011;30662;51.210;7.656;2022-12-11T01:21:09;72.05;;;35.72;;
44925;SDS011;30662;51.210;7.656;2022-12-11T01:23:37;75.43;;;35.43;;
44925;SDS011;30662;51.210;7.656;2022-12-11T01:26:04;68.28;;;34.22;;
44925;SDS011;30662;51.210;7.656;2022-12-11T01:28:31;70.03;;;32.00;;
44925;SDS011;30662;51.210;7.656;2022-12-11T01:30:57;69.57;;;34.38;;
44925;SDS011;30662;51.210;7.656;2022-12-11T01:33:23;81.22;;;35.08;;
44925;SDS011;30662;51.210;7.656;2022-12-11T01:35:48;72.32;;;33.58;;
44925;SDS011;30662;51.210;7.656;2022-12-11T01:38:15;70.00;;;34.30;;
44925;SDS011;30662;51.210;7.656;2022-12-11T01:40:45;73.68;;;35.83;;
44925;SDS011;30662;51.210;7.656;2022-12-11T01:43:17;80.40;;;36.97;;
44925;SDS011;30662;51.210;7.656;2022-12-11T01:45:45;76.65;;;38.20;;
44925;SDS011;30662;51.210;7.656;2022-12-11T01:48:19;73.88;;;33.85;;
44925;SDS011;30662;51.210;7.656;2022-12-11T01:53:17;71.97;;;34.25;;
44925;SDS011;30662;51.210;7.656;2022-12-11T01:55:46;77.53;;;33.75;;
44925;SDS011;30662;51.210;7.656;2022-12-11T01:58:15;69.35;;;32.30;;
44925;SDS011;30662;51.210;7.656;2022-12-11T02:00:44;67.32;;;33.17;;
44925;SDS011;30662;51.210;7.656;2022-12-11T02:03:10;78.45;;;32.70;;
44925;SDS011;30662;51.210;7.656;2022-12-11T02:05:36;80.40;;;34.33;;
44925;SDS011;30662;51.210;7.656;2022-12-11T02:08:03;68.13;;;32.08;;
44925;SDS011;30662;51.210;7.656;2022-12-11T02:13:17;60.42;;;29.73;;
44925;SDS011;30662;51.210;7.656;2022-12-11T02:16:38;66.00;;;31.65;;
44925;SDS011;30662;51.210;7.656;2022-12-11T02:18:58;66.40;;;31.08;;
44925;SDS011;30662;51.210;7.656;2022-12-11T02:21:37;69.32;;;30.98;;
44925;SDS011;30662;51.210;7.656;2022-12-11T02:29:46;63.58;;;27.67;;
44925;SDS011;30662;51.210;7.656;2022-12-11T02:32:26;51.08;;;24.70;;
44925;SDS011;30662;51.210;7.656;2022-12-11T02:35:09;54.97;;;26.02;;
44925;SDS011;30662;51.210;7.656;2022-12-11T02:37:40;96.15;;;27.77;;
44925;SDS011;30662;51.210;7.656;2022-12-11T02:40:09;55.55;;;25.38;;
44925;SDS011;30662;51.210;7.656;2022-12-11T02:42:38;57.42;;;24.17;;
44925;SDS011;30662;51.210;7.656;2022-12-11T02:45:08;62.05;;;24.38;;
44925;SDS011;30662;51.210;7.656;2022-12-11T02:47:36;53.00;;;24.60;;
44925;SDS011;30662;51.210;7.656;2022-12-11T02:50:06;54.20;;;27.10;;
44925;SDS011;30662;51.210;7.656;2022-12-11T02:52:37;61.00;;;25.48;;
44925;SDS011;30662;51.210;7.656;2022-12-11T02:55:06;54.90;;;25.17;;
44925;SDS011;30662;51.210;7.656;2022-12-11T02:57:50;140.18;;;27.77;;
44925;SDS011;30662;51.210;7.656;2022-12-11T03:00:24;60.47;;;24.85;;
44925;SDS011;30662;51.210;7.656;2022-12-11T03:02:50;67.05;;;27.50;;
44925;SDS011;30662;51.210;7.656;2022-12-11T03:05:16;64.30;;;26.05;;
44925;SDS011;30662;51.210;7.656;2022-12-11T03:07:42;77.05;;;29.38;;
44925;SDS011;30662;51.210;7.656;2022-12-11T03:10:10;64.50;;;27.02;;
44925;SDS011;30662;51.210;7.656;2022-12-11T03:12:39;85.25;;;27.15;;
44925;SDS011;30662;51.210;7.656;2022-12-11T03:15:10;82.88;;;26.60;;
44925;SDS011;30662;51.210;7.656;2022-12-11T03:18:00;109.70;;;28.88;;
44925;SDS011;30662;51.210;7.656;2022-12-11T03:20:45;76.72;;;26.85;;
44925;SDS011;30662;51.210;7.656;2022-12-11T03:23:21;106.20;;;27.08;;
44925;SDS011;30662;51.210;7.656;2022-12-11T03:26:09;63.95;;;28.35;;
44925;SDS011;30662;51.210;7.656;2022-12-11T03:28:40;121.28;;;27.58;;
44925;SDS011;30662;51.210;7.656;2022-12-11T03:31:12;67.80;;;27.88;;
44925;SDS011;30662;51.210;7.656;2022-12-11T03:33:46;71.53;;;28.00;;
44925;SDS011;30662;51.210;7.656;2022-12-11T03:36:19;64.50;;;26.50;;
44925;SDS011;30662;51.210;7.656;2022-12-11T03:38:53;66.18;;;27.05;;
44925;SDS011;30662;51.210;7.656;2022-12-11T03:41:23;135.00;;;28.70;;
44925;SDS011;30662;51.210;7.656;2022-12-11T03:43:51;57.90;;;25.08;;
44925;SDS011;30662;51.210;7.656;2022-12-11T03:46:21;48.35;;;22.67;;
44925;SDS011;30662;51.210;7.656;2022-12-11T03:48:52;76.57;;;25.10;;
44925;SDS011;30662;51.210;7.656;2022-12-11T03:51:20;58.05;;;23.88;;
44925;SDS011;30662;51.210;7.656;2022-12-11T03:53:48;98.05;;;26.55;;
44925;SDS011;30662;51.210;7.656;2022-12-11T03:56:14;55.30;;;23.63;;
44925;SDS011;30662;51.210;7.656;2022-12-11T03:58:42;88.07;;;23.83;;
44925;SDS011;30662;51.210;7.656;2022-12-11T04:01:08;88.03;;;26.40;;
44925;SDS011;30662;51.210;7.656;2022-12-11T04:03:36;52.67;;;23.08;;
44925;SDS011;30662;51.210;7.656;2022-12-11T04:06:02;47.90;;;22.50;;
44925;SDS011;30662;51.210;7.656;2022-12-11T04:08:28;50.78;;;22.77;;
44925;SDS011;30662;51.210;7.656;2022-12-11T04:10:54;56.35;;;22.30;;
44925;SDS011;30662;51.210;7.656;2022-12-11T04:13:39;54.05;;;21.75;;
44925;SDS011;30662;51.210;7.656;2022-12-11T04:16:06;158.88;;;25.50;;
44925;SDS011;30662;51.210;7.656;2022-12-11T04:18:33;104.00;;;24.10;;
44925;SDS011;30662;51.210;7.656;2022-12-11T04:21:17;56.28;;;24.58;;
44925;SDS011;30662;51.210;7.656;2022-12-11T04:24:05;46.78;;;22.25;;
44925;SDS011;30662;51.210;7.656;2022-12-11T04:26:41;50.15;;;23.60;;
44925;SDS011;30662;51.210;7.656;2022-12-11T04:29:12;55.63;;;23.23;;
44925;SDS011;30662;51.210;7.656;2022-12-11T04:31:38;59.40;;;24.10;;
44925;SDS011;30662;51.210;7.656;2022-12-11T04:34:04;66.28;;;22.23;;
44925;SDS011;30662;51.210;7.656;2022-12-11T04:36:30;60.45;;;23.92;;
44925;SDS011;30662;51.210;7.656;2022-12-11T04:38:56;52.70;;;22.80;;
44925;SDS011;30662;51.210;7.656;2022-12-11T04:41:22;54.15;;;21.75;;
44925;SDS011;30662;51.210;7.656;2022-12-11T04:43:48;56.47;;;24.10;;
44925;SDS011;30662;51.210;7.656;2022-12-11T04:46:18;65.50;;;24.50;;
44925;SDS011;30662;51.210;7.656;2022-12-11T04:48:46;57.03;;;23.20;;
44925;SDS011;30662;51.210;7.656;2022-12-11T04:51:16;73.82;;;23.75;;
44925;SDS011;30662;51.210;7.656;2022-12-11T04:53:43;54.88;;;22.83;;
44925;SDS011;30662;51.210;7.656;2022-12-11T04:56:10;69.20;;;21.73;;
44925;SDS011;30662;51.210;7.656;2022-12-11T04:58:39;77.45;;;25.35;;
44925;SDS011;30662;51.210;7.656;2022-12-11T05:01:06;84.32;;;22.17;;
44925;SDS011;30662;51.210;7.656;2022-12-11T05:03:37;144.80;;;25.92;;
44925;SDS011;30662;51.210;7.656;2022-12-11T05:06:02;95.22;;;22.90;;
44925;SDS011;30662;51.210;7.656;2022-12-11T05:08:29;56.83;;;22.15;;
44925;SDS011;30662;51.210;7.656;2022-12-11T05:10:58;63.22;;;25.20;;
44925;SDS011;30662;51.210;7.656;2022-12-11T05:13:25;68.32;;;25.55;;
44925;SDS011;30662;51.210;7.656;2022-12-11T05:15:51;73.15;;;25.30;;
44925;SDS011;30662;51.210;7.656;2022-12-11T05:18:17;63.53;;;23.30;;
44925;SDS011;30662;51.210;7.656;2022-12-11T05:20:44;68.65;;;25.25;;
44925;SDS011;30662;51.210;7.656;2022-12-11T05:23:10;74.75;;;25.00;;
44925;SDS011;30662;51.210;7.656;2022-12-11T05:25:36;104.07;;;27.40;;
44925;SDS011;30662;51.210;7.656;2022-12-11T05:28:02;65.95;;;24.17;;
44925;SDS011;30662;51.210;7.656;2022-12-11T05:30:27;92.03;;;25.58;;
44925;SDS011;30662;51.210;7.656;2022-12-11T05:32:53;66.97;;;23.00;;
44925;SDS011;30662;51.210;7.656;2022-12-11T05:35:19;81.55;;;23.73;;
44925;SDS011;30662;51.210;7.656;2022-12-11T05:37:45;71.60;;;24.33;;
44925;SDS011;30662;51.210;7.656;2022-12-11T05:40:11;74.90;;;26.25;;
44925;SDS011;30662;51.210;7.656;2022-12-11T05:42:37;64.43;;;26.45;;
44925;SDS011;30662;51.210;7.656;2022-12-11T05:45:03;67.47;;;25.98;;
44925;SDS011;30662;51.210;7.656;2022-12-11T05:47:29;68.70;;;26.42;;
44925;SDS011;30662;51.210;7.656;2022-12-11T05:49:56;131.73;;;25.75;;
44925;SDS011;30662;51.210;7.656;2022-12-11T05:52:21;130.80;;;27.30;;
44925;SDS011;30662;51.210;7.656;2022-12-11T05:54:48;70.05;;;23.30;;
44925;SDS011;30662;51.210;7.656;2022-12-11T05:57:14;105.43;;;24.75;;
44925;SDS011;30662;51.210;7.656;2022-12-11T05:59:41;83.07;;;24.17;;
44925;SDS011;30662;51.210;7.656;2022-12-11T06:02:07;75.72;;;23.42;;
44925;SDS011;30662;51.210;7.656;2022-12-11T06:04:32;78.22;;;21.63;;
44925;SDS011;30662;51.210;7.656;2022-12-11T06:06:58;74.78;;;21.67;;
44925;SDS011;30662;51.210;7.656;2022-12-11T06:09:24;65.88;;;23.40;;
44925;SDS011;30662;51.210;7.656;2022-12-11T06:11:50;114.82;;;24.77;;
44925;SDS011;30662;51.210;7.656;2022-12-11T06:14:16;61.95;;;23.08;;
44925;SDS011;30662;51.210;7.656;2022-12-11T06:16:41;56.38;;;20.65;;
44925;SDS011;30662;51.210;7.656;2022-12-11T06:19:14;53.38;;;20.67;;
44925;SDS011;30662;51.210;7.656;2022-12-11T06:21:42;49.20;;;20.05;;
44925;SDS011;30662;51.210;7.656;2022-12-11T06:24:09;52.72;;;20.92;;
44925;SDS011;30662;51.210;7.656;2022-12-11T06:26:36;46.30;;;19.85;;
44925;SDS011;30662;51.210;7.656;2022-12-11T06:29:02;56.53;;;21.73;;
44925;SDS011;30662;51.210;7.656;2022-12-11T06:31:34;46.72;;;21.38;;
44925;SDS011;30662;51.210;7.656;2022-12-11T06:34:00;55.13;;;21.38;;
44925;SDS011;30662;51.210;7.656;2022-12-11T06:36:25;54.10;;;20.52;;
44925;SDS011;30662;51.210;7.656;2022-12-11T06:38:51;50.15;;;19.33;;
44925;SDS011;30662;51.210;7.656;2022-12-11T06:41:17;47.85;;;18.48;;
44925;SDS011;30662;51.210;7.656;2022-12-11T06:43:43;51.20;;;19.75;;
44925;SDS011;30662;51.210;7.656;2022-12-11T06:46:11;45.80;;;18.27;;
44925;SDS011;30662;51.210;7.656;2022-12-11T06:48:39;50.45;;;20.10;;
44925;SDS011;30662;51.210;7.656;2022-12-11T06:51:07;51.65;;;23.25;;
44925;SDS011;30662;51.210;7.656;2022-12-11T06:53:34;56.10;;;24.08;;
44925;SDS011;30662;51.210;7.656;2022-12-11T06:56:01;36.13;;;18.15;;
44925;SDS011;30662;51.210;7.656;2022-12-11T06:58:32;35.83;;;15.88;;
44925;SDS011;30662;51.210;7.656;2022-12-11T07:00:59;30.27;;;14.68;;
44925;SDS011;30662;51.210;7.656;2022-12-11T07:03:25;29.60;;;13.70;;
44925;SDS011;30662;51.210;7.656;2022-12-11T07:05:51;25.20;;;12.30;;
44925;SDS011;30662;51.210;7.656;2022-12-11T07:08:16;29.10;;;13.38;;
44925;SDS011;30662;51.210;7.656;2022-12-11T07:10:42;25.05;;;13.48;;
44925;SDS011;30662;51.210;7.656;2022-12-11T07:13:08;26.70;;;12.93;;
44925;SDS011;30662;51.210;7.656;2022-12-11T07:15:35;25.25;;;13.10;;
44925;SDS011;30662;51.210;7.656;2022-12-11T07:18:05;22.70;;;12.00;;
44925;SDS011;30662;51.210;7.656;2022-12-11T07:20:31;25.33;;;13.35;;
44925;SDS011;30662;51.210;7.656;2022-12-11T07:22:57;29.08;;;13.40;;
44925;SDS011;30662;51.210;7.656;2022-12-11T07:25:23;24.83;;;13.50;;
44925;SDS011;30662;51.210;7.656;2022-12-11T07:27:49;24.83;;;13.13;;
44925;SDS011;30662;51.210;7.656;2022-12-11T07:30:14;25.13;;;12.50;;
44925;SDS011;30662;51.210;7.656;2022-12-11T07:32:40;24.75;;;13.50;;
44925;SDS011;30662;51.210;7.656;2022-12-11T07:35:07;25.30;;;12.25;;
44925;SDS011;30662;51.210;7.656;2022-12-11T07:37:34;24.85;;;12.65;;
44925;SDS011;30662;51.210;7.656;2022-12-11T07:39:59;23.83;;;12.18;;
44925;SDS011;30662;51.210;7.656;2022-12-11T07:42:25;26.08;;;12.50;;
44925;SDS011;30662;51.210;7.656;2022-12-11T07:44:52;22.35;;;13.05;;
44925;SDS011;30662;51.210;7.656;2022-12-11T07:47:18;27.00;;;12.57;;
44925;SDS011;30662;51.210;7.656;2022-12-11T07:49:44;24.75;;;14.00;;
44925;SDS011;30662;51.210;7.656;2022-12-11T07:52:10;25.20;;;13.05;;
44925;SDS011;30662;51.210;7.656;2022-12-11T07:54:35;23.50;;;12.48;;
44925;SDS011;30662;51.210;7.656;2022-12-11T07:57:01;31.85;;;16.30;;
44925;SDS011;30662;51.210;7.656;2022-12-11T07:59:27;25.63;;;13.13;;
44925;SDS011;30662;51.210;7.656;2022-12-11T08:01:53;24.65;;;11.50;;
44925;SDS011;30662;51.210;7.656;2022-12-11T08:04:18;24.55;;;11.98;;
44925;SDS011;30662;51.210;7.656;2022-12-11T08:06:44;24.58;;;12.75;;
44925;SDS011;30662;51.210;7.656;2022-12-11T08:09:11;28.10;;;14.10;;
44925;SDS011;30662;51.210;7.656;2022-12-11T08:11:47;27.92;;;14.20;;
44925;SDS011;30662;51.210;7.656;2022-12-11T08:14:17;25.77;;;14.38;;
44925;SDS011;30662;51.210;7.656;2022-12-11T08:16:45;30.83;;;15.30;;
44925;SDS011;30662;51.210;7.656;2022-12-11T08:19:12;28.65;;;14.13;;
44925;SDS011;30662;51.210;7.656;2022-12-11T08:21:38;25.70;;;13.60;;
44925;SDS011;30662;51.210;7.656;2022-12-11T08:24:04;26.58;;;14.57;;
44925;SDS011;30662;51.210;7.656;2022-12-11T08:26:31;26.75;;;13.57;;
44925;SDS011;30662;51.210;7.656;2022-12-11T08:28:57;26.52;;;14.23;;
44925;SDS011;30662;51.210;7.656;2022-12-11T08:31:24;27.17;;;14.52;;
44925;SDS011;30662;51.210;7.656;2022-12-11T08:33:50;29.02;;;13.73;;
44925;SDS011;30662;51.210;7.656;2022-12-11T08:36:18;26.45;;;13.63;;
44925;SDS011;30662;51.210;7.656;2022-12-11T08:38:45;31.48;;;14.55;;
44925;SDS011;30662;51.210;7.656;2022-12-11T08:41:12;27.15;;;12.65;;
44925;SDS011;30662;51.210;7.656;2022-12-11T08:43:39;30.20;;;14.93;;
44925;SDS011;30662;51.210;7.656;2022-12-11T08:46:06;31.02;;;14.32;;
44925;SDS011;30662;51.210;7.656;2022-12-11T08:48:33;25.05;;;13.57;;
44925;SDS011;30662;51.210;7.656;2022-12-11T08:51:00;26.55;;;13.55;;
44925;SDS011;30662;51.210;7.656;2022-12-11T08:53:28;27.00;;;14.32;;
44925;SDS011;30662;51.210;7.656;2022-12-11T08:55:59;26.45;;;14.45;;
44925;SDS011;30662;51.210;7.656;2022-12-11T08:58:26;29.33;;;13.55;;
44925;SDS011;30662;51.210;7.656;2022-12-11T09:00:53;24.85;;;14.57;;
44925;SDS011;30662;51.210;7.656;2022-12-11T09:03:18;28.13;;;13.52;;
44925;SDS011;30662;51.210;7.656;2022-12-11T09:05:44;29.98;;;15.23;;
44925;SDS011;30662;51.210;7.656;2022-12-11T09:08:10;28.42;;;14.20;;
44925;SDS011;30662;51.210;7.656;2022-12-11T09:10:36;28.17;;;14.65;;
44925;SDS011;30662;51.210;7.656;2022-12-11T09:13:02;24.98;;;13.70;;
44925;SDS011;30662;51.210;7.656;2022-12-11T09:15:28;25.17;;;13.63;;
44925;SDS011;30662;51.210;7.656;2022-12-11T09:17:54;22.70;;;12.80;;
44925;SDS011;30662;51.210;7.656;2022-12-11T09:20:19;26.15;;;14.45;;
44925;SDS011;30662;51.210;7.656;2022-12-11T09:22:45;28.10;;;15.32;;
44925;SDS011;30662;51.210;7.656;2022-12-11T09:25:11;26.88;;;15.10;;
44925;SDS011;30662;51.210;7.656;2022-12-11T09:27:37;24.38;;;13.23;;
44925;SDS011;30662;51.210;7.656;2022-12-11T09:30:03;25.77;;;13.57;;
44925;SDS011;30662;51.210;7.656;2022-12-11T09:32:29;24.10;;;11.77;;
44925;SDS011;30662;51.210;7.656;2022-12-11T09:34:55;22.98;;;12.45;;
44925;SDS011;30662;51.210;7.656;2022-12-11T09:37:21;17.60;;;9.80;;
44925;SDS011;30662;51.210;7.656;2022-12-11T09:39:47;23.13;;;11.75;;
44925;SDS011;30662;51.210;7.656;2022-12-11T09:42:14;20.20;;;11.15;;
44925;SDS011;30662;51.210;7.656;2022-12-11T09:44:51;21.17;;;12.73;;
44925;SDS011;30662;51.210;7.656;2022-12-11T09:47:30;24.02;;;11.65;;
44925;SDS011;30662;51.210;7.656;2022-12-11T09:50:09;21.60;;;12.65;;
44925;SDS011;30662;51.210;7.656;2022-12-11T09:56:21;20.42;;;11.32;;
44925;SDS011;30662;51.210;7.656;2022-12-11T10:01:16;20.27;;;10.98;;
44925;SDS011;30662;51.210;7.656;2022-12-11T10:06:23;25.42;;;12.18;;
44925;SDS011;30662;51.210;7.656;2022-12-11T10:09:02;23.13;;;12.15;;
44925;SDS011;30662;51.210;7.656;2022-12-11T10:14:34;20.77;;;11.82;;
44925;SDS011;30662;51.210;7.656;2022-12-11T10:17:18;21.00;;;11.40;;
44925;SDS011;30662;51.210;7.656;2022-12-11T10:19:52;24.92;;;13.35;;
44925;SDS011;30662;51.210;7.656;2022-12-11T10:22:21;21.73;;;11.93;;
44925;SDS011;30662;51.210;7.656;2022-12-11T10:24:54;24.90;;;12.20;;
44925;SDS011;30662;51.210;7.656;2022-12-11T10:30:12;20.50;;;11.27;;
44925;SDS011;30662;51.210;7.656;2022-12-11T10:35:35;22.77;;;12.07;;
44925;SDS011;30662;51.210;7.656;2022-12-11T10:43:47;23.88;;;13.18;;
44925;SDS011;30662;51.210;7.656;2022-12-11T10:51:21;22.15;;;13.38;;
44925;SDS011;30662;51.210;7.656;2022-12-11T10:53:52;20.17;;;11.10;;
44925;SDS011;30662;51.210;7.656;2022-12-11T10:56:29;17.25;;;10.68;;
44925;SDS011;30662;51.210;7.656;2022-12-11T10:58:57;18.92;;;10.57;;
44925;SDS011;30662;51.210;7.656;2022-12-11T11:01:26;20.58;;;12.35;;
44925;SDS011;30662;51.210;7.656;2022-12-11T11:06:31;18.77;;;10.90;;
44925;SDS011;30662;51.210;7.656;2022-12-11T11:08:58;22.38;;;10.93;;
44925;SDS011;30662;51.210;7.656;2022-12-11T11:11:28;20.75;;;12.55;;
44925;SDS011;30662;51.210;7.656;2022-12-11T11:16:37;20.87;;;11.00;;
44925;SDS011;30662;51.210;7.656;2022-12-11T11:19:04;21.13;;;11.65;;
44925;SDS011;30662;51.210;7.656;2022-12-11T11:21:32;18.45;;;11.65;;
44925;SDS011;30662;51.210;7.656;2022-12-11T11:23:59;22.23;;;11.23;;
44925;SDS011;30662;51.210;7.656;2022-12-11T11:26:25;22.05;;;12.05;;
44925;SDS011;30662;51.210;7.656;2022-12-11T11:29:18;17.52;;;11.27;;
44925;SDS011;30662;51.210;7.656;2022-12-11T11:31:50;17.50;;;11.00;;
44925;SDS011;30662;51.210;7.656;2022-12-11T11:34:17;17.35;;;10.68;;
44925;SDS011;30662;51.210;7.656;2022-12-11T11:36:56;18.05;;;10.27;;
44925;SDS011;30662;51.210;7.656;2022-12-11T11:39:27;17.75;;;10.88;;
44925;SDS011;30662;51.210;7.656;2022-12-11T11:45:10;18.08;;;10.18;;
44925;SDS011;30662;51.210;7.656;2022-12-11T11:47:47;14.65;;;9.82;;
44925;SDS011;30662;51.210;7.656;2022-12-11T11:50:24;14.60;;;9.15;;
44925;SDS011;30662;51.210;7.656;2022-12-11T11:53:11;15.35;;;8.60;;
44925;SDS011;30662;51.210;7.656;2022-12-11T11:58:40;14.88;;;9.25;;
44925;SDS011;30662;51.210;7.656;2022-12-11T12:01:14;15.60;;;9.80;;
44925;SDS011;30662;51.210;7.656;2022-12-11T12:03:42;16.23;;;9.65;;
44925;SDS011;30662;51.210;7.656;2022-12-11T12:06:20;13.18;;;8.88;;
44925;SDS011;30662;51.210;7.656;2022-12-11T12:09:25;13.45;;;9.25;;
44925;SDS011;30662;51.210;7.656;2022-12-11T12:17:52;17.83;;;9.77;;
44925;SDS011;30662;51.210;7.656;2022-12-11T12:20:42;16.35;;;9.57;;
44925;SDS011;30662;51.210;7.656;2022-12-11T12:29:11;16.13;;;10.63;;
44925;SDS011;30662;51.210;7.656;2022-12-11T12:34:50;14.73;;;8.90;;
44925;SDS011;30662;51.210;7.656;2022-12-11T12:48:27;15.40;;;9.05;;
44925;SDS011;30662;51.210;7.656;2022-12-11T12:50:53;13.30;;;8.77;;
44925;SDS011;30662;51.210;7.656;2022-12-11T12:53:22;16.25;;;9.55;;
44925;SDS011;30662;51.210;7.656;2022-12-11T12:55:51;16.13;;;10.00;;
44925;SDS011;30662;51.210;7.656;2022-12-11T13:01:18;16.63;;;11.18;;
44925;SDS011;30662;51.210;7.656;2022-12-11T13:03:59;19.00;;;10.65;;
44925;SDS011;30662;51.210;7.656;2022-12-11T13:11:50;14.57;;;10.50;;
44925;SDS011;30662;51.210;7.656;2022-12-11T13:16:49;15.18;;;10.02;;
44925;SDS011;30662;51.210;7.656;2022-12-11T13:21:54;14.77;;;10.60;;
44925;SDS011;30662;51.210;7.656;2022-12-11T13:24:25;17.75;;;10.75;;
44925;SDS011;30662;51.210;7.656;2022-12-11T13:26:53;15.05;;;9.88;;
44925;SDS011;30662;51.210;7.656;2022-12-11T13:29:39;15.02;;;10.00;;
44925;SDS011;30662;51.210;7.656;2022-12-11T13:34:35;17.25;;;10.45;;
44925;SDS011;30662;51.210;7.656;2022-12-11T13:37:04;16.92;;;10.85;;
44925;SDS011;30662;51.210;7.656;2022-12-11T13:39:33;15.23;;;10.82;;
44925;SDS011;30662;51.210;7.656;2022-12-11T13:42:05;15.88;;;10.50;;
44925;SDS011;30662;51.210;7.656;2022-12-11T13:44:45;17.42;;;10.25;;
44925;SDS011;30662;51.210;7.656;2022-12-11T13:47:13;16.27;;;10.18;;
44925;SDS011;30662;51.210;7.656;2022-12-11T13:49:42;16.90;;;10.85;;
44925;SDS011;30662;51.210;7.656;2022-12-11T13:52:18;20.27;;;11.40;;
44925;SDS011;30662;51.210;7.656;2022-12-11T13:54:47;14.02;;;11.02;;
44925;SDS011;30662;51.210;7.656;2022-12-11T13:57:16;17.30;;;11.25;;
44925;SDS011;30662;51.210;7.656;2022-12-11T13:59:47;16.60;;;11.20;;
44925;SDS011;30662;51.210;7.656;2022-12-11T14:05:09;17.95;;;10.80;;
44925;SDS011;30662;51.210;7.656;2022-12-11T14:07:41;15.65;;;10.00;;
44925;SDS011;30662;51.210;7.656;2022-12-11T14:10:16;17.55;;;10.50;;
44925;SDS011;30662;51.210;7.656;2022-12-11T14:12:51;17.88;;;11.13;;
44925;SDS011;30662;51.210;7.656;2022-12-11T14:15:18;16.45;;;11.13;;
44925;SDS011;30662;51.210;7.656;2022-12-11T14:17:44;21.30;;;11.70;;
44925;SDS011;30662;51.210;7.656;2022-12-11T14:20:23;18.05;;;12.52;;
44925;SDS011;30662;51.210;7.656;2022-12-11T14:25:40;14.75;;;9.90;;
44925;SDS011;30662;51.210;7.656;2022-12-11T14:28:14;16.58;;;10.82;;
44925;SDS011;30662;51.210;7.656;2022-12-11T14:30:50;18.38;;;11.98;;
44925;SDS011;30662;51.210;7.656;2022-12-11T14:33:17;19.95;;;11.98;;
44925;SDS011;30662;51.210;7.656;2022-12-11T14:35:47;19.95;;;12.38;;
44925;SDS011;30662;51.210;7.656;2022-12-11T14:38:17;22.33;;;12.98;;
44925;SDS011;30662;51.210;7.656;2022-12-11T14:40:50;19.35;;;12.15;;
44925;SDS011;30662;51.210;7.656;2022-12-11T14:43:28;21.33;;;12.65;;
44925;SDS011;30662;51.210;7.656;2022-12-11T14:45:59;18.42;;;12.68;;
44925;SDS011;30662;51.210;7.656;2022-12-11T14:48:32;21.00;;;13.40;;
44925;SDS011;30662;51.210;7.656;2022-12-11T14:51:02;19.88;;;14.30;;
44925;SDS011;30662;51.210;7.656;2022-12-11T14:53:34;21.83;;;14.38;;
44925;SDS011;30662;51.210;7.656;2022-12-11T14:56:07;22.15;;;13.05;;
44925;SDS011;30662;51.210;7.656;2022-12-11T14:58:42;22.13;;;14.38;;
44925;SDS011;30662;51.210;7.656;2022-12-11T15:01:21;19.80;;;12.98;;
44925;SDS011;30662;51.210;7.656;2022-12-11T15:06:31;23.13;;;12.48;;
44925;SDS011;30662;51.210;7.656;2022-12-11T15:11:50;18.95;;;12.48;;
44925;SDS011;30662;51.210;7.656;2022-12-11T15:14:19;25.25;;;15.43;;
44925;SDS011;30662;51.210;7.656;2022-12-11T15:16:48;22.33;;;14.18;;
44925;SDS011;30662;51.210;7.656;2022-12-11T15:19:33;23.33;;;12.95;;
44925;SDS011;30662;51.210;7.656;2022-12-11T15:22:04;21.50;;;12.07;;
44925;SDS011;30662;51.210;7.656;2022-12-11T15:24:36;20.83;;;13.07;;
44925;SDS011;30662;51.210;7.656;2022-12-11T15:27:05;18.30;;;10.25;;
44925;SDS011;30662;51.210;7.656;2022-12-11T15:29:41;19.27;;;10.43;;
44925;SDS011;30662;51.210;7.656;2022-12-11T15:34:42;20.63;;;11.65;;
44925;SDS011;30662;51.210;7.656;2022-12-11T15:37:20;21.42;;;13.60;;
44925;SDS011;30662;51.210;7.656;2022-12-11T15:39:50;22.48;;;14.48;;
44925;SDS011;30662;51.210;7.656;2022-12-11T15:42:37;19.73;;;12.60;;
44925;SDS011;30662;51.210;7.656;2022-12-11T15:45:19;20.83;;;11.60;;
44925;SDS011;30662;51.210;7.656;2022-12-11T15:47:53;18.27;;;11.27;;
44925;SDS011;30662;51.210;7.656;2022-12-11T15:50:20;21.23;;;12.70;;
44925;SDS011;30662;51.210;7.656;2022-12-11T15:52:47;19.73;;;11.98;;
44925;SDS011;30662;51.210;7.656;2022-12-11T15:55:14;24.33;;;13.45;;
44925;SDS011;30662;51.210;7.656;2022-12-11T15:57:44;24.02;;;13.80;;
44925;SDS011;30662;51.210;7.656;2022-12-11T16:00:16;22.85;;;13.82;;
44925;SDS011;30662;51.210;7.656;2022-12-11T16:02:43;23.25;;;15.05;;
44925;SDS011;30662;51.210;7.656;2022-12-11T16:05:10;29.55;;;15.93;;
44925;SDS011;30662;51.210;7.656;2022-12-11T16:07:37;24.33;;;14.85;;
44925;SDS011;30662;51.210;7.656;2022-12-11T16:10:03;27.85;;;15.00;;
44925;SDS011;30662;51.210;7.656;2022-12-11T16:12:30;22.58;;;13.75;;
44925;SDS011;30662;51.210;7.656;2022-12-11T16:14:56;24.02;;;14.93;;
44925;SDS011;30662;51.210;7.656;2022-12-11T16:17:22;25.88;;;16.08;;
44925;SDS011;30662;51.210;7.656;2022-12-11T16:19:48;25.83;;;14.73;;